createdAt,value
2019-06-10T00:00:44.122Z,69.21
2019-06-10T00:01:44.109Z,69.71
2019-06-10T00:02:44.105Z,69.62
2019-06-10T00:03:44.093Z,69.31
2019-06-10T00:04:44.084Z,69.62
2019-06-10T00:05:44.089Z,69.51
2019-06-10T00:06:44.060Z,69.62
2019-06-10T00:07:44.047Z,69.95
2019-06-10T00:08:44.038Z,69.51
2019-06-10T00:09:44.024Z,69.71
2019-06-10T00:10:44.015Z,69.51
2019-06-10T00:11:44.016Z,69.31
2019-06-10T00:12:44.001Z,69.51
2019-06-10T00:13:43.991Z,69.31
2019-06-10T00:14:43.973Z,69.21
2019-06-10T00:15:43.962Z,69.21
2019-06-10T00:16:43.954Z,69.31
2019-06-10T00:17:54.784Z,69.31
2019-06-10T00:18:45.776Z,69.71
2019-06-10T00:19:43.918Z,69.55
2019-06-10T00:20:43.907Z,69.62
2019-06-10T00:21:43.899Z,69.65
2019-06-10T00:22:43.886Z,69.65
2019-06-10T00:23:43.889Z,69.95
2019-06-10T00:24:43.868Z,70.15
2019-06-10T00:25:43.856Z,69.95
2019-06-10T00:26:43.844Z,69.55
2019-06-10T00:27:43.833Z,69.75
2019-06-10T00:28:43.824Z,69.65
2019-06-10T00:29:43.823Z,69.65
2019-06-10T00:30:43.800Z,69.34
2019-06-10T00:31:43.791Z,69.71
2019-06-10T00:32:43.781Z,69.75
2019-06-10T00:33:43.795Z,69.45
2019-06-10T00:34:43.762Z,69.75
2019-06-10T00:35:43.762Z,70.15
2019-06-10T00:36:43.737Z,70.15
2019-06-10T00:37:43.729Z,70.15
2019-06-10T00:38:43.716Z,70.15
2019-06-10T00:39:43.707Z,70.05
2019-06-10T00:40:43.709Z,69.95
2019-06-10T00:41:43.702Z,69.51
2019-06-10T00:42:43.678Z,69.62
2019-06-10T00:43:43.672Z,69.71
2019-06-10T00:44:43.655Z,69.62
2019-06-10T00:45:43.643Z,69.21
2019-06-10T00:46:43.633Z,69.51
2019-06-10T00:47:43.632Z,69.42
2019-06-10T00:48:43.609Z,69.51
2019-06-10T00:49:43.602Z,69.01
2019-06-10T00:50:43.589Z,69.21
2019-06-10T00:51:43.582Z,69.75
2019-06-10T00:52:45.370Z,69.85
2019-06-10T00:53:43.571Z,69.75
2019-06-10T00:54:43.545Z,69.65
2019-06-10T00:55:43.535Z,69.65
2019-06-10T00:56:43.525Z,69.75
2019-06-10T00:57:43.514Z,69.55
2019-06-10T00:58:43.505Z,69.65
2019-06-10T00:59:43.502Z,69.85
2019-06-10T01:00:43.480Z,70.25
2019-06-10T01:01:43.491Z,70.15
2019-06-10T01:02:43.459Z,70.59
2019-06-10T01:03:43.455Z,70.39
2019-06-10T01:04:43.440Z,70.36
2019-06-10T01:05:43.440Z,70.46
2019-06-10T01:06:43.417Z,70.56
2019-06-10T01:07:43.405Z,69.85
2019-06-10T01:08:43.398Z,69.75
2019-06-10T01:09:43.392Z,69.65
2019-06-10T01:10:44.301Z,69.71
2019-06-10T01:11:43.375Z,69.11
2019-06-10T01:12:43.352Z,69.21
2019-06-10T01:13:43.352Z,69.31
2019-06-10T01:14:43.329Z,69.51
2019-06-10T01:15:43.326Z,69.21
2019-06-10T01:16:43.307Z,69.51
2019-06-10T01:17:43.307Z,69.31
2019-06-10T01:18:43.289Z,69.31
2019-06-10T01:19:43.277Z,69.14
2019-06-10T01:20:43.265Z,69.11
2019-06-10T01:21:43.258Z,69.34
2019-06-10T01:22:43.244Z,69.55
2019-06-10T01:23:43.240Z,69.04
2019-06-10T01:24:43.219Z,69.27
2019-06-10T01:25:43.208Z,69.55
2019-06-10T01:26:43.201Z,69.65
2019-06-10T01:27:43.191Z,69.68
2019-06-10T01:28:43.182Z,69.89
2019-06-10T01:29:43.183Z,70.49
2019-06-10T01:30:43.153Z,69.89
2019-06-10T01:31:43.143Z,69.89
2019-06-10T01:32:43.132Z,70.09
2019-06-10T01:33:43.126Z,69.89
2019-06-10T01:34:43.111Z,69.58
2019-06-10T01:35:43.111Z,69.58
2019-06-10T01:36:43.094Z,69.07
2019-06-10T01:37:43.079Z,69.61
2019-06-10T01:38:43.074Z,69.89
2019-06-10T01:39:43.062Z,69.68
2019-06-10T01:40:43.047Z,69.38
2019-06-10T01:41:43.050Z,69.07
2019-06-10T01:42:43.024Z,69.61
2019-06-10T01:43:43.016Z,69.41
2019-06-10T01:44:43.002Z,69.41
2019-06-10T01:45:42.993Z,69.21
2019-06-10T01:46:42.980Z,69.18
2019-06-10T01:47:42.978Z,69.07
2019-06-10T01:48:47.829Z,69.27
2019-06-10T01:49:43.945Z,69.07
2019-06-10T01:50:42.934Z,69.18
2019-06-10T01:51:42.928Z,68.87
2019-06-10T01:52:42.928Z,68.87
2019-06-10T01:53:42.916Z,68.97
2019-06-10T01:54:42.900Z,68.87
2019-06-10T01:55:42.883Z,68.97
2019-06-10T01:56:42.871Z,68.87
2019-06-10T01:57:42.860Z,68.57
2019-06-10T01:58:42.849Z,69.10
2019-06-10T01:59:42.847Z,69.01
2019-06-10T02:00:42.830Z,68.57
2019-06-10T02:01:42.816Z,68.16
2019-06-10T02:02:44.576Z,68.47
2019-06-10T02:03:42.793Z,68.47
2019-06-10T02:04:42.784Z,68.37
2019-06-10T02:05:42.783Z,68.57
2019-06-10T02:06:42.767Z,68.06
2019-06-10T02:07:42.751Z,68.37
2019-06-10T02:08:42.748Z,68.37
2019-06-10T02:09:42.727Z,68.06
2019-06-10T02:10:42.716Z,68.37
2019-06-10T02:11:42.718Z,68.67
2019-06-10T02:12:42.693Z,68.37
2019-06-10T02:13:42.683Z,68.47
2019-06-10T02:14:42.677Z,68.37
2019-06-10T02:15:42.660Z,68.57
2019-06-10T02:16:42.657Z,68.67
2019-06-10T02:17:42.655Z,68.50
2019-06-10T02:18:56.871Z,68.26
2019-06-10T02:19:43.618Z,68.77
2019-06-10T02:20:42.607Z,68.67
2019-06-10T02:21:42.600Z,68.37
2019-06-10T02:22:42.586Z,68.80
2019-06-10T02:23:42.585Z,68.57
2019-06-10T02:24:42.566Z,68.16
2019-06-10T02:25:42.550Z,68.06
2019-06-10T02:26:42.538Z,68.37
2019-06-10T02:27:42.528Z,68.26
2019-06-10T02:28:42.517Z,68.60
2019-06-10T02:29:42.523Z,68.16
2019-06-10T02:30:50.508Z,68.37
2019-06-10T02:31:43.827Z,68.47
2019-06-10T02:32:43.010Z,68.37
2019-06-10T02:33:42.466Z,68.47
2019-06-10T02:35:00.436Z,68.06
2019-06-10T02:35:48.879Z,68.26
2019-06-10T02:36:44.447Z,68.67
2019-06-10T02:37:44.463Z,67.66
2019-06-10T02:38:44.375Z,67.66
2019-06-10T02:39:43.951Z,68.67
2019-06-10T02:40:43.312Z,68.26
2019-06-10T02:41:44.664Z,67.96
2019-06-10T02:42:43.588Z,67.66
2019-06-10T02:43:44.144Z,67.66
2019-06-10T02:44:44.443Z,67.86
2019-06-10T02:45:44.477Z,67.86
2019-06-10T02:46:43.985Z,67.86
2019-06-10T02:47:44.385Z,68.06
2019-06-10T02:48:43.671Z,67.76
2019-06-10T02:49:56.780Z,68.67
2019-06-10T02:50:44.083Z,68.47
2019-06-10T02:51:43.705Z,68.26
2019-06-10T02:52:44.523Z,68.87
2019-06-10T02:53:43.403Z,69.07
2019-06-10T02:54:43.819Z,69.18
2019-06-10T02:55:43.372Z,69.38
2019-06-10T02:56:44.089Z,69.07
2019-06-10T02:57:44.985Z,69.48
2019-06-10T02:58:44.784Z,69.58
2019-06-10T02:59:43.548Z,69.38
2019-06-10T03:00:47.467Z,69.38
2019-06-10T03:01:44.196Z,69.58
2019-06-10T03:02:45.025Z,69.78
2019-06-10T03:03:45.885Z,69.68
2019-06-10T03:04:43.438Z,69.81
2019-06-10T03:05:46.532Z,69.38
2019-06-10T03:06:44.799Z,69.07
2019-06-10T03:07:44.368Z,68.67
2019-06-10T03:08:43.763Z,68.60
2019-06-10T03:09:42.813Z,68.16
2019-06-10T03:10:44.298Z,68.77
2019-06-10T03:11:44.798Z,68.57
2019-06-10T03:12:42.450Z,68.60
2019-06-10T03:13:42.628Z,68.10
2019-06-10T03:14:42.313Z,69.10
2019-06-10T03:15:42.701Z,68.80
2019-06-10T03:16:42.362Z,68.70
2019-06-10T03:17:42.900Z,69.10
2019-06-10T03:18:43.445Z,68.47
2019-06-10T03:19:47.822Z,68.80
2019-06-10T03:20:42.946Z,68.97
2019-06-10T03:21:42.893Z,69.10
2019-06-10T03:22:42.415Z,68.40
2019-06-10T03:23:42.640Z,68.70
2019-06-10T03:24:42.191Z,68.50
2019-06-10T03:25:42.289Z,68.37
2019-06-10T03:26:42.836Z,67.89
2019-06-10T03:27:42.409Z,68.06
2019-06-10T03:28:42.862Z,68.50
2019-06-10T03:29:42.197Z,68.47
2019-06-10T03:30:52.709Z,68.50
2019-06-10T03:31:47.727Z,68.67
2019-06-10T03:32:46.994Z,68.97
2019-06-10T03:33:47.432Z,69.01
2019-06-10T03:34:47.356Z,68.80
2019-06-10T03:35:42.786Z,69.18
2019-06-10T03:36:42.945Z,68.90
2019-06-10T03:37:42.429Z,68.80
2019-06-10T03:38:43.312Z,68.90
2019-06-10T03:39:42.673Z,69.21
2019-06-10T03:40:43.420Z,68.90
2019-06-10T03:41:42.347Z,69.41
2019-06-10T03:42:42.726Z,69.41
2019-06-10T03:43:43.019Z,69.71
2019-06-10T03:44:43.060Z,69.51
2019-06-10T03:45:42.567Z,70.32
2019-06-10T03:46:43.147Z,70.32
2019-06-10T03:47:42.712Z,70.62
2019-06-10T03:48:43.297Z,70.62
2019-06-10T03:49:52.390Z,69.71
2019-06-10T03:50:43.217Z,70.18
2019-06-10T03:51:42.853Z,70.22
2019-06-10T03:52:43.152Z,69.98
2019-06-10T03:53:42.541Z,70.32
2019-06-10T03:54:43.226Z,70.02
2019-06-10T03:55:42.380Z,69.81
2019-06-10T03:56:42.971Z,69.92
2019-06-10T03:57:42.319Z,69.71
2019-06-10T03:58:43.032Z,69.61
2019-06-10T03:59:42.207Z,69.71
2019-06-10T04:00:43.029Z,70.42
2019-06-10T04:01:42.656Z,70.42
2019-06-10T04:02:43.048Z,70.42
2019-06-10T04:03:42.684Z,70.32
2019-06-10T04:04:42.950Z,70.62
2019-06-10T04:05:42.337Z,70.12
2019-06-10T04:06:44.152Z,70.52
2019-06-10T04:07:42.749Z,71.03
2019-06-10T04:08:43.275Z,71.33
2019-06-10T04:09:42.532Z,71.33
2019-06-10T04:10:43.012Z,70.73
2019-06-10T04:11:43.051Z,71.33
2019-06-10T04:12:43.453Z,71.03
2019-06-10T04:13:43.124Z,71.03
2019-06-10T04:14:42.002Z,70.83
2019-06-10T04:15:43.167Z,71.13
2019-06-10T04:16:43.360Z,70.73
2019-06-10T04:17:42.806Z,70.52
2019-06-10T04:18:43.111Z,70.73
2019-06-10T04:19:42.111Z,71.23
2019-06-10T04:20:42.903Z,70.96
2019-06-10T04:21:43.247Z,70.65
2019-06-10T04:22:41.283Z,71.57
2019-06-10T04:23:42.455Z,71.37
2019-06-10T04:24:43.141Z,72.17
2019-06-10T04:25:42.731Z,71.77
2019-06-10T04:26:43.260Z,71.77
2019-06-10T04:27:42.495Z,72.17
2019-06-10T04:28:42.931Z,71.26
2019-06-10T04:29:42.212Z,71.26
2019-06-10T04:30:43.288Z,71.16
2019-06-10T04:31:42.518Z,71.16
2019-06-10T04:32:42.914Z,71.77
2019-06-10T04:33:42.074Z,70.56
2019-06-10T04:34:43.342Z,71.16
2019-06-10T04:35:42.723Z,71.91
2019-06-10T04:36:42.330Z,72.21
2019-06-10T04:37:42.805Z,71.97
2019-06-10T04:38:43.280Z,72.31
2019-06-10T04:39:42.779Z,72.08
2019-06-10T04:40:43.054Z,72.08
2019-06-10T04:41:42.609Z,72.28
2019-06-10T04:42:43.402Z,71.97
2019-06-10T04:43:43.165Z,71.88
2019-06-10T04:44:42.325Z,71.57
2019-06-10T04:45:42.936Z,71.97
2019-06-10T04:46:42.738Z,71.88
2019-06-10T04:47:43.045Z,71.77
2019-06-10T04:48:42.689Z,72.24
2019-06-10T04:49:42.856Z,72.04
2019-06-10T04:50:45.505Z,71.84
2019-06-10T04:51:43.405Z,71.73
2019-06-10T04:52:42.915Z,72.24
2019-06-10T04:53:43.237Z,71.94
2019-06-10T04:54:42.164Z,71.94
2019-06-10T04:55:43.044Z,71.94
2019-06-10T04:56:42.843Z,71.73
2019-06-10T04:57:42.921Z,72.24
2019-06-10T04:58:43.013Z,71.84
2019-06-10T04:59:42.846Z,71.73
2019-06-10T05:00:42.899Z,71.94
2019-06-10T05:01:42.601Z,71.94
2019-06-10T05:02:43.032Z,71.23
2019-06-10T05:03:43.214Z,71.33
2019-06-10T05:04:42.646Z,71.13
2019-06-10T05:05:42.933Z,71.44
2019-06-10T05:06:42.231Z,71.53
2019-06-10T05:07:42.799Z,71.13
2019-06-10T05:08:42.561Z,71.44
2019-06-10T05:09:42.204Z,71.70
2019-06-10T05:10:42.418Z,71.20
2019-06-10T05:11:42.833Z,70.89
2019-06-10T05:12:43.117Z,71.00
2019-06-10T05:13:42.881Z,71.20
2019-06-10T05:14:43.118Z,70.93
2019-06-10T05:15:43.177Z,71.53
2019-06-10T05:16:42.861Z,70.62
2019-06-10T05:17:43.048Z,71.13
2019-06-10T05:18:42.427Z,72.34
2019-06-10T05:19:42.809Z,72.34
2019-06-10T05:20:54.064Z,72.04
2019-06-10T05:21:42.336Z,71.53
2019-06-10T05:22:42.369Z,71.03
2019-06-10T05:23:42.782Z,71.44
2019-06-10T05:24:42.437Z,71.09
2019-06-10T05:25:42.655Z,71.23
2019-06-10T05:26:42.618Z,71.13
2019-06-10T05:27:42.734Z,71.91
2019-06-10T05:28:42.957Z,71.33
2019-06-10T05:29:42.220Z,71.23
2019-06-10T05:30:42.649Z,71.40
2019-06-10T05:31:43.243Z,71.50
2019-06-10T05:32:43.017Z,71.70
2019-06-10T05:33:42.638Z,71.40
2019-06-10T05:34:43.514Z,71.30
2019-06-10T05:35:42.591Z,71.26
2019-06-10T05:36:43.280Z,70.86
2019-06-10T05:37:42.296Z,70.86
2019-06-10T05:38:43.181Z,70.86
2019-06-10T05:39:42.381Z,71.06
2019-06-10T05:40:42.678Z,71.30
2019-06-10T05:41:43.067Z,70.66
2019-06-10T05:42:42.433Z,70.36
2019-06-10T05:43:42.775Z,71.37
2019-06-10T05:44:40.387Z,70.96
2019-06-10T05:45:42.333Z,71.06
2019-06-10T05:46:40.353Z,70.96
2019-06-10T05:47:42.607Z,71.17
2019-06-10T05:48:40.330Z,70.89
2019-06-10T05:49:42.899Z,70.59
2019-06-10T05:50:42.663Z,71.30
2019-06-10T05:51:42.355Z,71.20
2019-06-10T05:52:42.538Z,71.00
2019-06-10T05:53:42.260Z,71.40
2019-06-10T05:54:40.268Z,71.00
2019-06-10T05:55:42.608Z,71.00
2019-06-10T05:56:40.243Z,71.17
2019-06-10T05:57:42.628Z,70.56
2019-06-10T05:58:40.221Z,71.47
2019-06-10T05:59:40.210Z,70.86
2019-06-10T06:00:40.200Z,71.20
2019-06-10T06:01:42.880Z,71.30
2019-06-10T06:02:40.181Z,71.13
2019-06-10T06:03:40.177Z,72.21
2019-06-10T06:04:40.159Z,72.21
2019-06-10T06:05:40.148Z,71.91
2019-06-10T06:06:42.484Z,72.65
2019-06-10T06:07:42.148Z,72.34
2019-06-10T06:08:42.645Z,72.11
2019-06-10T06:09:42.567Z,72.11
2019-06-10T06:10:42.225Z,71.60
2019-06-10T06:11:40.090Z,71.40
2019-06-10T06:12:42.237Z,70.79
2019-06-10T06:13:40.060Z,71.47
2019-06-10T06:14:42.445Z,71.17
2019-06-10T06:15:42.263Z,71.44
2019-06-10T06:16:42.999Z,71.23
2019-06-10T06:17:40.016Z,70.83
2019-06-10T06:18:42.222Z,70.83
2019-06-10T06:19:40.032Z,70.29
2019-06-10T06:20:39.983Z,70.89
2019-06-10T06:21:46.415Z,70.49
2019-06-10T06:22:42.816Z,70.09
2019-06-10T06:23:39.949Z,69.18
2019-06-10T06:24:39.939Z,68.98
2019-06-10T06:25:46.217Z,69.48
2019-06-10T06:26:43.175Z,70.19
2019-06-10T06:27:41.958Z,69.85
2019-06-10T06:28:42.855Z,69.04
2019-06-10T06:29:39.892Z,69.11
2019-06-10T06:30:42.136Z,69.01
2019-06-10T06:31:39.864Z,67.97
2019-06-10T06:32:39.866Z,67.97
2019-06-10T06:33:39.985Z,67.67
2019-06-10T06:34:39.832Z,67.03
2019-06-10T06:35:43.686Z,66.93
2019-06-10T06:36:42.258Z,65.72
2019-06-10T06:37:39.818Z,64.58
2019-06-10T06:38:39.798Z,64.42
2019-06-10T06:39:39.777Z,63.31
2019-06-10T06:40:39.766Z,64.45
2019-06-10T06:41:42.442Z,64.42
2019-06-10T06:42:39.747Z,64.75
2019-06-10T06:43:44.332Z,64.05
2019-06-10T06:44:43.123Z,64.95
2019-06-10T06:45:42.447Z,64.86
2019-06-10T06:46:39.823Z,63.85
2019-06-10T06:47:39.696Z,63.37
2019-06-10T06:48:40.993Z,65.29
2019-06-10T06:49:39.681Z,64.48
2019-06-10T06:50:54.626Z,64.41
2019-06-10T06:51:51.921Z,64.41
2019-06-10T06:53:13.976Z,64.89
2019-06-10T06:53:48.371Z,65.29
2019-06-10T06:54:42.482Z,63.98
2019-06-10T06:55:39.824Z,63.47
2019-06-10T06:56:41.203Z,63.78
2019-06-10T06:57:40.136Z,62.77
2019-06-10T06:58:40.125Z,63.17
2019-06-10T06:59:40.859Z,62.77
2019-06-10T07:00:57.860Z,62.66
2019-06-10T07:01:43.316Z,62.84
2019-06-10T07:02:40.874Z,62.64
2019-06-10T07:03:41.836Z,62.24
2019-06-10T07:04:41.140Z,62.26
2019-06-10T07:05:41.049Z,62.37
2019-06-10T07:06:40.436Z,63.37
2019-06-10T07:07:41.086Z,63.07
2019-06-10T07:08:40.784Z,63.20
2019-06-10T07:09:40.553Z,64.28
2019-06-10T07:10:40.777Z,64.18
2019-06-10T07:11:41.116Z,64.07
2019-06-10T07:12:43.306Z,63.17
2019-06-10T07:13:40.724Z,62.97
2019-06-10T07:14:40.833Z,63.27
2019-06-10T07:15:42.220Z,63.07
2019-06-10T07:16:44.237Z,62.74
2019-06-10T07:17:44.431Z,62.74
2019-06-10T07:18:46.343Z,62.84
2019-06-10T07:19:42.091Z,62.81
2019-06-10T07:20:41.655Z,62.64
2019-06-10T07:21:58.413Z,62.13
2019-06-10T07:22:41.880Z,62.34
2019-06-10T07:23:44.533Z,62.84
2019-06-10T07:24:43.110Z,62.10
2019-06-10T07:25:42.474Z,62.21
2019-06-10T07:26:46.199Z,62.48
2019-06-10T07:27:45.119Z,61.77
2019-06-10T07:28:42.534Z,61.70
2019-06-10T07:29:41.457Z,62.10
2019-06-10T07:30:47.254Z,62.61
2019-06-10T07:31:43.448Z,62.10
2019-06-10T07:32:41.505Z,61.70
2019-06-10T07:33:43.023Z,61.98
2019-06-10T07:34:41.679Z,61.98
2019-06-10T07:35:39.188Z,61.77
2019-06-10T07:36:39.188Z,60.97
2019-06-10T07:37:39.454Z,62.07
2019-06-10T07:38:41.081Z,61.74
2019-06-10T07:39:39.599Z,60.97
2019-06-10T07:40:39.254Z,61.47
2019-06-10T07:41:39.347Z,61.04
2019-06-10T07:42:39.122Z,60.94
2019-06-10T07:43:42.430Z,61.44
2019-06-10T07:44:41.588Z,61.74
2019-06-10T07:45:41.599Z,61.98
2019-06-10T07:46:43.465Z,62.05
2019-06-10T07:47:39.087Z,60.74
2019-06-10T07:48:41.084Z,61.54
2019-06-10T07:49:39.330Z,61.11
2019-06-10T07:50:39.332Z,60.48
2019-06-10T07:51:39.385Z,60.08
2019-06-10T07:52:39.369Z,60.28
2019-06-10T07:53:40.016Z,60.00
2019-06-10T07:54:39.307Z,60.48
2019-06-10T07:55:39.550Z,60.08
2019-06-10T07:56:45.211Z,60.38
2019-06-10T07:57:42.631Z,59.85
2019-06-10T07:58:40.138Z,59.34
2019-06-10T07:59:39.550Z,59.85
2019-06-10T08:00:40.217Z,59.34
2019-06-10T08:01:45.946Z,60.02
2019-06-10T08:02:42.809Z,58.64
2019-06-10T08:03:39.824Z,59.58
2019-06-10T08:04:39.857Z,60.21
2019-06-10T08:05:40.047Z,61.21
2019-06-10T08:06:39.872Z,60.71
2019-06-10T08:07:38.916Z,60.61
2019-06-10T08:08:38.898Z,59.17
2019-06-10T08:09:39.090Z,58.87
2019-06-10T08:10:39.132Z,57.64
2019-06-10T08:11:39.287Z,58.24
2019-06-10T08:12:39.303Z,58.62
2019-06-10T08:13:39.325Z,58.11
2019-06-10T08:14:39.526Z,57.61
2019-06-10T08:15:39.719Z,56.48
2019-06-10T08:16:39.850Z,55.85
2019-06-10T08:17:40.404Z,57.03
2019-06-10T08:18:51.056Z,55.65
2019-06-10T08:19:45.444Z,55.70
2019-06-10T08:20:42.206Z,54.87
2019-06-10T08:21:39.014Z,54.24
2019-06-10T08:22:45.401Z,53.34
2019-06-10T08:23:40.252Z,52.92
2019-06-10T08:24:39.361Z,53.99
2019-06-10T08:25:38.657Z,52.87
2019-06-10T08:26:39.393Z,51.45
2019-06-10T08:27:38.630Z,53.04
2019-06-10T08:28:39.620Z,53.44
2019-06-10T08:29:38.711Z,52.69
2019-06-10T08:30:39.770Z,54.55
2019-06-10T08:31:38.873Z,55.55
2019-06-10T08:32:39.976Z,55.55
2019-06-10T08:33:39.027Z,55.62
2019-06-10T08:34:38.560Z,53.79
2019-06-10T08:35:46.093Z,53.69
2019-06-10T08:36:42.176Z,52.77
2019-06-10T08:37:40.761Z,52.17
2019-06-10T08:38:38.519Z,51.89
2019-06-10T08:39:38.509Z,52.92
2019-06-10T08:40:38.496Z,53.34
2019-06-10T08:41:38.562Z,54.85
2019-06-10T08:42:38.974Z,53.24
2019-06-10T08:43:38.594Z,53.12
2019-06-10T08:44:38.866Z,53.30
2019-06-10T08:45:38.927Z,52.80
2019-06-10T08:46:38.815Z,51.59
2019-06-10T08:47:39.198Z,52.07
2019-06-10T08:48:39.061Z,51.97
2019-06-10T08:49:39.166Z,51.57
2019-06-10T08:50:39.341Z,51.59
2019-06-10T08:51:39.660Z,52.39
2019-06-10T08:52:53.920Z,51.50
2019-06-10T08:53:39.488Z,53.69
2019-06-10T08:54:40.488Z,52.47
2019-06-10T08:55:39.605Z,52.09
2019-06-10T08:56:38.916Z,51.27
2019-06-10T08:57:38.936Z,51.45
2019-06-10T08:58:39.012Z,51.12
2019-06-10T08:59:39.683Z,50.99
2019-06-10T09:00:39.158Z,50.60
2019-06-10T09:01:40.461Z,49.98
2019-06-10T09:02:39.334Z,50.49
2019-06-10T09:03:39.903Z,51.54
2019-06-10T09:04:39.296Z,52.07
2019-06-10T09:05:40.450Z,51.89
2019-06-10T09:06:39.219Z,54.10
2019-06-10T09:07:39.414Z,53.39
2019-06-10T09:08:39.955Z,53.07
2019-06-10T09:09:39.280Z,52.14
2019-06-10T09:10:39.514Z,52.55
2019-06-10T09:11:39.300Z,52.64
2019-06-10T09:12:38.438Z,51.72
2019-06-10T09:13:39.175Z,52.04
2019-06-10T09:14:38.670Z,52.25
2019-06-10T09:15:39.131Z,52.77
2019-06-10T09:16:39.587Z,51.75
2019-06-10T09:17:39.704Z,51.45
2019-06-10T09:18:39.496Z,51.82
2019-06-10T09:19:38.766Z,51.72
2019-06-10T09:20:39.372Z,52.02
2019-06-10T09:21:40.399Z,51.50
2019-06-10T09:22:39.804Z,51.07
2019-06-10T09:23:39.251Z,50.45
2019-06-10T09:24:38.993Z,49.65
2019-06-10T09:25:39.216Z,50.17
2019-06-10T09:26:39.928Z,51.67
2019-06-10T09:27:40.078Z,51.15
2019-06-10T09:28:39.279Z,49.65
2019-06-10T09:29:39.592Z,50.15
2019-06-10T09:30:40.461Z,50.25
2019-06-10T09:31:39.464Z,49.90
2019-06-10T09:32:37.955Z,49.51
2019-06-10T09:33:37.941Z,48.61
2019-06-10T09:34:37.933Z,48.31
2019-06-10T09:35:37.931Z,48.50
2019-06-10T09:36:37.930Z,49.30
2019-06-10T09:37:37.904Z,48.49
2019-06-10T09:38:37.887Z,49.08
2019-06-10T09:39:37.878Z,48.50
2019-06-10T09:40:37.867Z,49.73
2019-06-10T09:41:43.027Z,49.48
2019-06-10T09:42:41.574Z,51.25
2019-06-10T09:43:40.465Z,51.07
2019-06-10T09:44:37.829Z,51.37
2019-06-10T09:45:37.818Z,52.17
2019-06-10T09:46:37.806Z,52.89
2019-06-10T09:47:37.810Z,52.87
2019-06-10T09:48:38.289Z,51.94
2019-06-10T09:49:37.776Z,51.20
2019-06-10T09:50:37.783Z,52.99
2019-06-10T09:51:37.768Z,54.22
2019-06-10T09:52:37.743Z,54.12
2019-06-10T09:53:42.897Z,54.12
2019-06-10T09:54:38.720Z,54.02
2019-06-10T09:55:37.711Z,55.02
2019-06-10T09:56:37.703Z,53.12
2019-06-10T09:57:37.694Z,54.22
2019-06-10T09:58:37.711Z,53.59
2019-06-10T09:59:37.702Z,53.79
2019-06-10T10:00:37.657Z,53.87
2019-06-10T10:01:37.649Z,52.64
2019-06-10T10:02:37.637Z,53.44
2019-06-10T10:03:37.630Z,52.25
2019-06-10T10:04:37.701Z,53.17
2019-06-10T10:05:37.868Z,53.27
2019-06-10T10:06:37.596Z,52.97
2019-06-10T10:07:37.589Z,52.97
2019-06-10T10:08:37.575Z,53.77
2019-06-10T10:09:37.565Z,52.97
2019-06-10T10:10:37.556Z,52.87
2019-06-10T10:11:37.623Z,52.67
2019-06-10T10:12:37.529Z,53.67
2019-06-10T10:13:37.518Z,54.02
2019-06-10T10:14:37.508Z,53.31
2019-06-10T10:15:37.498Z,51.72
2019-06-10T10:16:37.487Z,50.62
2019-06-10T10:17:37.490Z,50.82
2019-06-10T10:18:37.463Z,51.10
2019-06-10T10:19:37.458Z,50.49
2019-06-10T10:20:37.445Z,50.47
2019-06-10T10:21:39.337Z,50.37
2019-06-10T10:22:37.436Z,50.17
2019-06-10T10:23:51.126Z,50.27
2019-06-10T10:24:38.400Z,49.77
2019-06-10T10:25:37.391Z,51.17
2019-06-10T10:26:37.378Z,51.27
2019-06-10T10:27:37.370Z,51.89
2019-06-10T10:28:37.366Z,51.10
2019-06-10T10:29:37.361Z,51.50
2019-06-10T10:30:37.338Z,51.62
2019-06-10T10:31:37.353Z,50.99
2019-06-10T10:32:37.320Z,50.72
2019-06-10T10:33:37.309Z,51.59
2019-06-10T10:34:37.298Z,52.07
2019-06-10T10:35:37.303Z,51.25
2019-06-10T10:36:37.915Z,51.03
2019-06-10T10:37:37.264Z,50.02
2019-06-10T10:38:37.258Z,49.88
2019-06-10T10:39:37.244Z,49.68
2019-06-10T10:40:37.237Z,48.88
2019-06-10T10:41:37.256Z,49.06
2019-06-10T10:42:44.882Z,48.44
2019-06-10T10:43:38.229Z,48.34
2019-06-10T10:44:37.202Z,49.66
2019-06-10T10:45:37.184Z,49.70
2019-06-10T10:46:37.172Z,50.92
2019-06-10T10:47:37.176Z,51.45
2019-06-10T10:48:37.155Z,51.75
2019-06-10T10:49:37.146Z,51.47
2019-06-10T10:50:37.131Z,52.97
2019-06-10T10:51:37.122Z,51.89
2019-06-10T10:52:37.115Z,52.07
2019-06-10T10:53:37.112Z,51.47
2019-06-10T10:54:37.091Z,51.25
2019-06-10T10:55:37.078Z,52.64
2019-06-10T10:56:37.071Z,51.72
2019-06-10T10:57:37.060Z,50.73
2019-06-10T10:58:37.052Z,50.43
2019-06-10T10:59:37.070Z,51.00
2019-06-10T11:00:37.606Z,50.40
2019-06-10T11:01:37.018Z,50.90
2019-06-10T11:02:37.007Z,50.82
2019-06-10T11:03:37.001Z,50.43
2019-06-10T11:04:36.994Z,51.52
2019-06-10T11:05:36.988Z,51.25
2019-06-10T11:06:36.972Z,50.95
2019-06-10T11:07:36.954Z,50.95
2019-06-10T11:08:36.949Z,50.95
2019-06-10T11:09:36.932Z,51.87
2019-06-10T11:10:36.925Z,51.37
2019-06-10T11:11:36.923Z,51.25
2019-06-10T11:12:36.930Z,50.13
2019-06-10T11:13:36.899Z,50.62
2019-06-10T11:14:36.884Z,50.32
2019-06-10T11:15:36.874Z,50.40
2019-06-10T11:16:36.862Z,49.80
2019-06-10T11:17:36.871Z,49.10
2019-06-10T11:18:36.850Z,49.60
2019-06-10T11:19:36.826Z,50.00
2019-06-10T11:20:36.818Z,49.21
2019-06-10T11:21:36.807Z,49.43
2019-06-10T11:22:36.800Z,49.63
2019-06-10T11:23:36.802Z,49.40
2019-06-10T11:24:41.050Z,49.30
2019-06-10T11:25:38.433Z,48.61
2019-06-10T11:26:36.764Z,48.50
2019-06-10T11:27:36.743Z,49.80
2019-06-10T11:28:36.732Z,49.33
2019-06-10T11:29:36.761Z,48.91
2019-06-10T11:30:36.713Z,49.33
2019-06-10T11:31:36.715Z,49.30
2019-06-10T11:32:36.689Z,49.30
2019-06-10T11:33:36.682Z,48.93
2019-06-10T11:34:36.667Z,48.53
2019-06-10T11:35:36.675Z,49.13
2019-06-10T11:36:36.647Z,49.15
2019-06-10T11:37:36.640Z,49.95
2019-06-10T11:38:36.633Z,49.57
2019-06-10T11:39:38.764Z,51.67
2019-06-10T11:40:36.610Z,50.95
2019-06-10T11:41:36.609Z,51.65
2019-06-10T11:42:36.588Z,50.52
2019-06-10T11:43:36.574Z,50.92
2019-06-10T11:44:36.564Z,50.52
2019-06-10T11:45:36.560Z,51.32
2019-06-10T11:46:36.549Z,50.52
2019-06-10T11:47:36.547Z,50.92
2019-06-10T11:48:36.525Z,51.35
2019-06-10T11:49:36.510Z,50.74
2019-06-10T11:50:36.503Z,51.62
2019-06-10T11:51:36.500Z,51.72
2019-06-10T11:52:36.479Z,50.00
2019-06-10T11:53:36.485Z,51.10
2019-06-10T11:54:50.588Z,49.60
2019-06-10T11:55:37.450Z,50.00
2019-06-10T11:56:36.440Z,49.90
2019-06-10T11:57:36.442Z,49.28
2019-06-10T11:58:36.425Z,49.40
2019-06-10T11:59:36.419Z,50.60
2019-06-10T12:00:36.408Z,49.90
2019-06-10T12:01:36.387Z,50.50
2019-06-10T12:02:36.372Z,50.20
2019-06-10T12:03:36.373Z,49.70
2019-06-10T12:04:36.353Z,51.10
2019-06-10T12:05:36.375Z,50.70
2019-06-10T12:06:36.332Z,49.38
2019-06-10T12:07:36.326Z,50.78
2019-06-10T12:08:36.325Z,49.88
2019-06-10T12:09:36.299Z,49.48
2019-06-10T12:10:36.297Z,50.87
2019-06-10T12:11:36.296Z,49.28
2019-06-10T12:12:36.269Z,51.50
2019-06-10T12:13:36.268Z,51.07
2019-06-10T12:14:36.252Z,50.68
2019-06-10T12:16:15.759Z,50.18
2019-06-10T12:17:47.170Z,50.75
2019-06-10T12:18:37.205Z,50.45
2019-06-10T12:19:36.209Z,49.55
2019-06-10T12:20:36.189Z,49.16
2019-06-10T12:21:36.174Z,49.13
2019-06-10T12:22:36.200Z,49.55
2019-06-10T12:23:36.149Z,49.53
2019-06-10T12:24:36.149Z,48.54
2019-06-10T12:25:39.531Z,48.94
2019-06-10T12:26:36.122Z,48.44
2019-06-10T12:27:36.114Z,48.66
2019-06-10T12:28:36.131Z,48.66
2019-06-10T12:29:36.092Z,48.66
2019-06-10T12:30:36.097Z,48.24
2019-06-10T12:31:36.071Z,48.34
2019-06-10T12:32:36.067Z,49.33
2019-06-10T12:33:36.084Z,49.91
2019-06-10T12:34:36.989Z,48.44
2019-06-10T12:35:36.030Z,49.53
2019-06-10T12:36:36.019Z,49.63
2019-06-10T12:37:36.020Z,49.63
2019-06-10T12:38:35.996Z,49.73
2019-06-10T12:39:35.993Z,49.33
2019-06-10T12:40:36.012Z,49.83
2019-06-10T12:41:35.984Z,48.44
2019-06-10T12:42:35.955Z,48.71
2019-06-10T12:43:35.953Z,48.61
2019-06-10T12:44:35.949Z,48.89
2019-06-10T12:45:35.925Z,47.10
2019-06-10T12:46:36.911Z,48.17
2019-06-10T12:47:35.915Z,48.07
2019-06-10T12:48:35.899Z,47.67
2019-06-10T12:49:35.884Z,48.65
2019-06-10T12:50:35.867Z,47.55
2019-06-10T12:51:35.858Z,47.45
2019-06-10T12:52:35.876Z,47.55
2019-06-10T12:53:35.837Z,46.86